Maersk Bintan — VROX4 — position and weather

sailwx.info

Track history (hours):
 
Tides and Currents Weather Stations Pressure Air Temp Water Temp Dewpoint Dewpoint Depression Visibility Wind Speed Wind Dir Waves Ship Positions

Maersk Bintan

Last reported at 2017-Oct-15 01:56 UTC. Time now 2017-Oct-23 08:23 UTC.
Position N 34°53' W 010°30'.
Warning: this ship's position is 8 days out of date.

Length 223 m; draft 11.5 m.

Type: Ship (hazmat cat A). MMSI: 477178900.

Date/timePositionNaut miles runAvg speedWind from/ knotsBaromVisibWave heightAir tempDewpointWater temp
2017-Oct-15 01:56N 34°53' W 010°30'614.6
2017-Oct-15 01:30N 34°54' W 010°22'714.7
2017-Oct-15 01:01N 34°57' W 010°14'9714.5
2017-Oct-14 18:19N 35°25' W 008°21'1014.5
2017-Oct-14 17:37N 35°28' W 008°09'814.2
2017-Oct-14 17:05N 35°31' W 008°00'314.3
2017-Oct-14 16:53N 35°32' W 007°57'513.8
2017-Oct-14 16:30N 35°33' W 007°51'714.6
2017-Oct-14 16:00N 35°35' W 007°42'714.5
2017-Oct-14 15:30N 35°37' W 007°33'1014.6
2017-Oct-14 14:49N 35°40' W 007°21'614.7
2017-Oct-14 14:26N 35°42' W 007°15'714.9
2017-Oct-14 13:58N 35°44' W 007°07'714.2
2017-Oct-14 13:28N 35°46' W 006°58'815.4
2017-Oct-14 12:58N 35°49' W 006°50'6012.6
2017-Oct-14 08:13N 35°58' W 005°36'315.1
2017-Oct-14 08:00N 35°59' W 005°32'714.2
2017-Oct-14 07:30N 36°02' W 005°25'7 9.4
2017-Oct-14 06:47N 36°09' W 005°25'1 0.4
2017-Oct-14 04:48N 36°08' W 005°26'0 0.0
2017-Oct-14 04:24N 36°08' W 005°26'0 0.0
2017-Oct-14 04:00N 36°08' W 005°26'0 0.0
2017-Oct-14 03:30N 36°08' W 005°26'0 0.0
2017-Oct-14 03:00N 36°08' W 005°26'0 0.0
2017-Oct-14 02:27N 36°08' W 005°26'0 0.0
2017-Oct-14 02:00N 36°08' W 005°26'0 0.0
2017-Oct-14 01:24N 36°08' W 005°26'0 0.0
2017-Oct-14 01:00N 36°08' W 005°26'0 0.0
2017-Oct-14 00:24N 36°08' W 005°26'0 0.0
2017-Oct-14 00:00N 36°08' W 005°26'0 0.0
2017-Oct-13 22:24N 36°08' W 005°26'0 0.0
2017-Oct-13 21:45N 36°08' W 005°26'0 0.1
2017-Oct-13 21:27N 36°08' W 005°26'0 0.0
2017-Oct-13 21:00N 36°08' W 005°26'0 0.0
2017-Oct-13 20:24N 36°08' W 005°26'0 0.0
2017-Oct-13 19:42N 36°08' W 005°26'0 0.0
2017-Oct-13 07:39N 36°08' W 005°26'0 0.0
2017-Oct-13 05:54N 36°08' W 005°26'0 0.6
2017-Oct-13 05:29N 36°09' W 005°26'2 3.0
2017-Oct-13 04:54N 36°08' W 005°24'1 3.7
2017-Oct-13 04:30N 36°07' W 005°24'5 9.4
2017-Oct-13 04:00N 36°03' W 005°20'1019.2
2017-Oct-13 03:30N 36°05' W 005°08'3220.0
2017-Oct-13 01:56N 36°09' W 004°30'1419.5
2017-Oct-13 01:12N 36°11' W 004°12'15719.4
2017-Oct-12 17:07N 36°34' W 000°60'319.9
2017-Oct-12 16:56N 36°35' W 000°55'919.9
2017-Oct-12 16:30N 36°36' W 000°45'1020.1
2017-Oct-12 16:00N 36°37' W 000°32'1020.1
2017-Oct-12 15:30N 36°39' W 000°20'1020.2
2017-Oct-12 15:00N 36°40' W 000°07'1019.9
2017-Oct-12 14:30N 36°42' E 000°05'1019.8
2017-Oct-12 14:00N 36°44' E 000°17'1020.0
2017-Oct-12 13:30N 36°45' E 000°29'1019.9
2017-Oct-12 13:00N 36°47' E 000°42'1020.2
2017-Oct-12 12:30N 36°48' E 000°54'1020.3
2017-Oct-12 12:00N 36°49' E 001°07'1020.0
2017-Oct-12 11:30N 36°51' E 001°19'1219.6
2017-Oct-12 10:53N 36°52' E 001°34'719.7
2017-Oct-12 10:30N 36°53' E 001°43'1019.8
2017-Oct-12 10:00N 36°55' E 001°56'1319.6
2017-Oct-12 09:20N 36°57' E 002°12'719.7
2017-Oct-12 09:00N 36°58' E 002°20'1019.7
2017-Oct-12 08:30N 36°59' E 002°32'1019.8
2017-Oct-12 08:00N 37°01' E 002°44'  
2017-Oct-10 00:27N 37°37' E 024°09'920.0
2017-Oct-10 00:01N 37°43' E 024°17'27915.1
2017-Oct-09 05:30N 40°45' E 028°50'1019.5
2017-Oct-09 05:00N 40°45' E 029°03'1019.3
2017-Oct-09 04:31N 40°45' E 029°16'713.0
2017-Oct-09 04:00N 40°45' E 029°24'11 0.7
2017-Oct-08 12:17N 40°44' E 029°39'713.1
2017-Oct-08 11:47N 40°45' E 029°30'413.0
2017-Oct-08 11:30N 40°44' E 029°26'5 9.5
2017-Oct-08 10:58N 40°43' E 029°19'510.8
2017-Oct-08 10:30N 40°44' E 029°13'611.1
2017-Oct-08 10:00N 40°44' E 029°05'611.1
2017-Oct-08 09:30N 40°45' E 028°58'610.6
2017-Oct-08 08:54N 40°46' E 028°50'186 4.0
2017-Oct-06 10:29N 42°31' E 032°15'710.2
2017-Oct-06 09:49N 42°34' E 032°24'410.2
2017-Oct-06 09:24N 42°36' E 032°29'2611.9
2017-Oct-06 07:11N 42°48' E 033°00'314.9
2017-Oct-06 07:00N 42°50' E 033°04'714.8
2017-Oct-06 06:30N 42°53' E 033°13'20615.6
2017-Oct-05 17:22N 44°27' E 037°25'719.9
2017-Oct-05 17:00N 44°30' E 037°34'1711.2
2017-Oct-05 15:30N 44°43' E 037°49'0 0.3
2017-Oct-05 15:00N 44°43' E 037°49'0 0.0
2017-Oct-05 14:30N 44°43' E 037°49'0 0.0
2017-Oct-05 13:59N 44°43' E 037°49'0 0.0
2017-Oct-05 13:29N 44°43' E 037°49'0 0.0
2017-Oct-05 12:59N 44°43' E 037°49'0 0.0
2017-Oct-05 12:29N 44°43' E 037°49'0 0.0
2017-Oct-05 11:59N 44°43' E 037°49'0 0.0
2017-Oct-05 11:29N 44°43' E 037°49'0 0.0
2017-Oct-05 10:56N 44°43' E 037°49'0 0.0
2017-Oct-05 10:29N 44°43' E 037°49'0 0.0
2017-Oct-05 09:59N 44°43' E 037°49'0 0.0
2017-Oct-05 09:29N 44°43' E 037°49'0 0.0
2017-Oct-05 08:59N 44°43' E 037°49'0 0.0
2017-Oct-05 08:29N 44°43' E 037°49'0 0.0
2017-Oct-05 07:59N 44°43' E 037°49'0 0.0
2017-Oct-05 07:29N 44°43' E 037°49'0 0.0
2017-Oct-05 06:59N 44°43' E 037°49'0 0.0
2017-Oct-05 06:29N 44°43' E 037°49'0 0.0
2017-Oct-05 05:59N 44°43' E 037°49'0 0.0
2017-Oct-05 05:29N 44°43' E 037°49'0 0.0
2017-Oct-05 04:59N 44°43' E 037°49'0 0.0
2017-Oct-05 04:29N 44°43' E 037°49'0 0.0
2017-Oct-05 03:59N 44°43' E 037°49'0 0.0
2017-Oct-05 03:29N 44°43' E 037°49'0 0.0
2017-Oct-05 02:59N 44°43' E 037°49'0 0.0
2017-Oct-05 02:29N 44°43' E 037°49'0 0.0
2017-Oct-05 01:59N 44°43' E 037°49'  
Track history (hours):
 
Tides and Currents Weather Stations Pressure Air Temp Water Temp Dewpoint Dewpoint Depression Visibility Wind Speed Wind Dir Waves Ship Positions

Maersk Bintan

Last reported at 2017-Oct-15 01:56 UTC. Time now 2017-Oct-23 08:23 UTC.
Position N 34°53' W 010°30'.
Warning: this ship's position is 8 days out of date.

Length 223 m; draft 11.5 m.

Type: Ship (hazmat cat A). MMSI: 477178900.

Date/timePositionNaut miles runAvg speedWind from/ knotsBaromVisibWave heightAir tempDewpointWater temp
2017-Oct-15 01:56N 34°53' W 010°30'614.6
2017-Oct-15 01:30N 34°54' W 010°22'714.7
2017-Oct-15 01:01N 34°57' W 010°14'9714.5
2017-Oct-14 18:19N 35°25' W 008°21'1014.5
2017-Oct-14 17:37N 35°28' W 008°09'814.2
2017-Oct-14 17:05N 35°31' W 008°00'314.3
2017-Oct-14 16:53N 35°32' W 007°57'513.8
2017-Oct-14 16:30N 35°33' W 007°51'714.6
2017-Oct-14 16:00N 35°35' W 007°42'714.5
2017-Oct-14 15:30N 35°37' W 007°33'1014.6
2017-Oct-14 14:49N 35°40' W 007°21'614.7
2017-Oct-14 14:26N 35°42' W 007°15'714.9
2017-Oct-14 13:58N 35°44' W 007°07'714.2
2017-Oct-14 13:28N 35°46' W 006°58'815.4
2017-Oct-14 12:58N 35°49' W 006°50'6012.6
2017-Oct-14 08:13N 35°58' W 005°36'315.1
2017-Oct-14 08:00N 35°59' W 005°32'714.2
2017-Oct-14 07:30N 36°02' W 005°25'7 9.4
2017-Oct-14 06:47N 36°09' W 005°25'1 0.4
2017-Oct-14 04:48N 36°08' W 005°26'0 0.0
2017-Oct-14 04:24N 36°08' W 005°26'0 0.0
2017-Oct-14 04:00N 36°08' W 005°26'0 0.0
2017-Oct-14 03:30N 36°08' W 005°26'0 0.0
2017-Oct-14 03:00N 36°08' W 005°26'0 0.0
2017-Oct-14 02:27N 36°08' W 005°26'0 0.0
2017-Oct-14 02:00N 36°08' W 005°26'0 0.0
2017-Oct-14 01:24N 36°08' W 005°26'0 0.0
2017-Oct-14 01:00N 36°08' W 005°26'0 0.0
2017-Oct-14 00:24N 36°08' W 005°26'0 0.0
2017-Oct-14 00:00N 36°08' W 005°26'0 0.0
2017-Oct-13 22:24N 36°08' W 005°26'0 0.0
2017-Oct-13 21:45N 36°08' W 005°26'0 0.1
2017-Oct-13 21:27N 36°08' W 005°26'0 0.0
2017-Oct-13 21:00N 36°08' W 005°26'0 0.0
2017-Oct-13 20:24N 36°08' W 005°26'0 0.0
2017-Oct-13 19:42N 36°08' W 005°26'0 0.0
2017-Oct-13 07:39N 36°08' W 005°26'0 0.0
2017-Oct-13 05:54N 36°08' W 005°26'0 0.6
2017-Oct-13 05:29N 36°09' W 005°26'2 3.0
2017-Oct-13 04:54N 36°08' W 005°24'1 3.7
2017-Oct-13 04:30N 36°07' W 005°24'5 9.4
2017-Oct-13 04:00N 36°03' W 005°20'1019.2
2017-Oct-13 03:30N 36°05' W 005°08'3220.0
2017-Oct-13 01:56N 36°09' W 004°30'1419.5
2017-Oct-13 01:12N 36°11' W 004°12'15719.4
2017-Oct-12 17:07N 36°34' W 000°60'319.9
2017-Oct-12 16:56N 36°35' W 000°55'919.9
2017-Oct-12 16:30N 36°36' W 000°45'1020.1
2017-Oct-12 16:00N 36°37' W 000°32'1020.1
2017-Oct-12 15:30N 36°39' W 000°20'1020.2
2017-Oct-12 15:00N 36°40' W 000°07'1019.9
2017-Oct-12 14:30N 36°42' E 000°05'1019.8
2017-Oct-12 14:00N 36°44' E 000°17'1020.0
2017-Oct-12 13:30N 36°45' E 000°29'1019.9
2017-Oct-12 13:00N 36°47' E 000°42'1020.2
2017-Oct-12 12:30N 36°48' E 000°54'1020.3
2017-Oct-12 12:00N 36°49' E 001°07'1020.0
2017-Oct-12 11:30N 36°51' E 001°19'1219.6
2017-Oct-12 10:53N 36°52' E 001°34'719.7
2017-Oct-12 10:30N 36°53' E 001°43'1019.8
2017-Oct-12 10:00N 36°55' E 001°56'1319.6
2017-Oct-12 09:20N 36°57' E 002°12'719.7
2017-Oct-12 09:00N 36°58' E 002°20'1019.7
2017-Oct-12 08:30N 36°59' E 002°32'1019.8
2017-Oct-12 08:00N 37°01' E 002°44'  
2017-Oct-10 00:27N 37°37' E 024°09'920.0
2017-Oct-10 00:01N 37°43' E 024°17'27915.1
2017-Oct-09 05:30N 40°45' E 028°50'1019.5
2017-Oct-09 05:00N 40°45' E 029°03'1019.3
2017-Oct-09 04:31N 40°45' E 029°16'713.0
2017-Oct-09 04:00N 40°45' E 029°24'11 0.7
2017-Oct-08 12:17N 40°44' E 029°39'713.1
2017-Oct-08 11:47N 40°45' E 029°30'413.0
2017-Oct-08 11:30N 40°44' E 029°26'5 9.5
2017-Oct-08 10:58N 40°43' E 029°19'510.8
2017-Oct-08 10:30N 40°44' E 029°13'611.1
2017-Oct-08 10:00N 40°44' E 029°05'611.1
2017-Oct-08 09:30N 40°45' E 028°58'610.6
2017-Oct-08 08:54N 40°46' E 028°50'186 4.0
2017-Oct-06 10:29N 42°31' E 032°15'710.2
2017-Oct-06 09:49N 42°34' E 032°24'410.2
2017-Oct-06 09:24N 42°36' E 032°29'2611.9
2017-Oct-06 07:11N 42°48' E 033°00'314.9
2017-Oct-06 07:00N 42°50' E 033°04'714.8
2017-Oct-06 06:30N 42°53' E 033°13'20615.6
2017-Oct-05 17:22N 44°27' E 037°25'719.9
2017-Oct-05 17:00N 44°30' E 037°34'1711.2
2017-Oct-05 15:30N 44°43' E 037°49'0 0.3
2017-Oct-05 15:00N 44°43' E 037°49'0 0.0
2017-Oct-05 14:30N 44°43' E 037°49'0 0.0
2017-Oct-05 13:59N 44°43' E 037°49'0 0.0
2017-Oct-05 13:29N 44°43' E 037°49'0 0.0
2017-Oct-05 12:59N 44°43' E 037°49'0 0.0
2017-Oct-05 12:29N 44°43' E 037°49'0 0.0
2017-Oct-05 11:59N 44°43' E 037°49'0 0.0
2017-Oct-05 11:29N 44°43' E 037°49'0 0.0
2017-Oct-05 10:56N 44°43' E 037°49'0 0.0
2017-Oct-05 10:29N 44°43' E 037°49'0 0.0
2017-Oct-05 09:59N 44°43' E 037°49'0 0.0
2017-Oct-05 09:29N 44°43' E 037°49'0 0.0
2017-Oct-05 08:59N 44°43' E 037°49'0 0.0
2017-Oct-05 08:29N 44°43' E 037°49'0 0.0
2017-Oct-05 07:59N 44°43' E 037°49'0 0.0
2017-Oct-05 07:29N 44°43' E 037°49'0 0.0
2017-Oct-05 06:59N 44°43' E 037°49'0 0.0
2017-Oct-05 06:29N 44°43' E 037°49'0 0.0
2017-Oct-05 05:59N 44°43' E 037°49'0 0.0
2017-Oct-05 05:29N 44°43' E 037°49'0 0.0
2017-Oct-05 04:59N 44°43' E 037°49'0 0.0
2017-Oct-05 04:29N 44°43' E 037°49'0 0.0
2017-Oct-05 03:59N 44°43' E 037°49'0 0.0
2017-Oct-05 03:29N 44°43' E 037°49'0 0.0
2017-Oct-05 02:59N 44°43' E 037°49'0 0.0
2017-Oct-05 02:29N 44°43' E 037°49'0 0.0
2017-Oct-05 01:59N 44°43' E 037°49'  

Dump ship's entire track history